sensor_id;sensor_type;location;lat;lon;timestamp;P1;durP1;ratioP1;P2;durP2;ratioP2
3967;SDS011;9221;42.646;23.380;2022-12-07T00:00:37;42.40;;;13.13;;
3967;SDS011;9221;42.646;23.380;2022-12-07T00:03:03;42.43;;;14.47;;
3967;SDS011;9221;42.646;23.380;2022-12-07T00:05:29;44.77;;;14.23;;
3967;SDS011;9221;42.646;23.380;2022-12-07T00:07:55;43.97;;;15.00;;
3967;SDS011;9221;42.646;23.380;2022-12-07T00:10:20;45.40;;;13.00;;
3967;SDS011;9221;42.646;23.380;2022-12-07T00:12:45;41.03;;;12.63;;
3967;SDS011;9221;42.646;23.380;2022-12-07T00:15:11;58.63;;;13.07;;
3967;SDS011;9221;42.646;23.380;2022-12-07T00:17:36;50.23;;;13.30;;
3967;SDS011;9221;42.646;23.380;2022-12-07T00:20:02;46.43;;;13.27;;
3967;SDS011;9221;42.646;23.380;2022-12-07T00:22:27;40.30;;;12.70;;
3967;SDS011;9221;42.646;23.380;2022-12-07T00:24:52;45.57;;;13.30;;
3967;SDS011;9221;42.646;23.380;2022-12-07T00:27:18;32.80;;;11.77;;
3967;SDS011;9221;42.646;23.380;2022-12-07T00:29:43;37.33;;;12.03;;
3967;SDS011;9221;42.646;23.380;2022-12-07T00:32:09;38.13;;;12.93;;
3967;SDS011;9221;42.646;23.380;2022-12-07T00:34:36;49.17;;;13.70;;
3967;SDS011;9221;42.646;23.380;2022-12-07T00:37:01;43.33;;;13.07;;
3967;SDS011;9221;42.646;23.380;2022-12-07T00:39:26;48.63;;;14.30;;
3967;SDS011;9221;42.646;23.380;2022-12-07T00:41:52;40.83;;;12.67;;
3967;SDS011;9221;42.646;23.380;2022-12-07T00:44:17;31.93;;;12.37;;
3967;SDS011;9221;42.646;23.380;2022-12-07T00:46:42;46.00;;;13.33;;
3967;SDS011;9221;42.646;23.380;2022-12-07T00:49:08;46.70;;;13.40;;
3967;SDS011;9221;42.646;23.380;2022-12-07T00:51:33;49.37;;;13.57;;
3967;SDS011;9221;42.646;23.380;2022-12-07T00:53:59;37.50;;;12.30;;
3967;SDS011;9221;42.646;23.380;2022-12-07T00:56:25;42.50;;;12.97;;
3967;SDS011;9221;42.646;23.380;2022-12-07T00:58:53;40.20;;;13.20;;
3967;SDS011;9221;42.646;23.380;2022-12-07T01:01:23;39.93;;;13.87;;
3967;SDS011;9221;42.646;23.380;2022-12-07T01:03:50;40.35;;;12.93;;
3967;SDS011;9221;42.646;23.380;2022-12-07T01:06:19;55.90;;;11.80;;
3967;SDS011;9221;42.646;23.380;2022-12-07T01:08:46;37.70;;;10.80;;
3967;SDS011;9221;42.646;23.380;2022-12-07T01:11:12;30.13;;;11.07;;
3967;SDS011;9221;42.646;23.380;2022-12-07T01:13:39;35.50;;;11.43;;
3967;SDS011;9221;42.646;23.380;2022-12-07T01:16:05;29.73;;;10.60;;
3967;SDS011;9221;42.646;23.380;2022-12-07T01:18:33;39.73;;;12.10;;
3967;SDS011;9221;42.646;23.380;2022-12-07T01:21:07;34.67;;;12.00;;
3967;SDS011;9221;42.646;23.380;2022-12-07T01:23:46;33.60;;;11.07;;
3967;SDS011;9221;42.646;23.380;2022-12-07T01:26:13;47.73;;;12.73;;
3967;SDS011;9221;42.646;23.380;2022-12-07T01:28:40;36.78;;;11.10;;
3967;SDS011;9221;42.646;23.380;2022-12-07T01:31:09;30.50;;;10.73;;
3967;SDS011;9221;42.646;23.380;2022-12-07T01:33:37;41.90;;;13.03;;
3967;SDS011;9221;42.646;23.380;2022-12-07T01:36:04;36.43;;;12.43;;
3967;SDS011;9221;42.646;23.380;2022-12-07T01:38:37;36.20;;;11.67;;
3967;SDS011;9221;42.646;23.380;2022-12-07T01:41:03;33.97;;;11.53;;
3967;SDS011;9221;42.646;23.380;2022-12-07T01:43:29;40.33;;;12.10;;
3967;SDS011;9221;42.646;23.380;2022-12-07T01:45:55;39.93;;;10.87;;
3967;SDS011;9221;42.646;23.380;2022-12-07T01:48:29;27.13;;;9.63;;
3967;SDS011;9221;42.646;23.380;2022-12-07T01:51:01;35.70;;;11.57;;
3967;SDS011;9221;42.646;23.380;2022-12-07T01:53:30;35.60;;;12.87;;
3967;SDS011;9221;42.646;23.380;2022-12-07T01:56:00;31.07;;;12.07;;
3967;SDS011;9221;42.646;23.380;2022-12-07T01:58:26;41.43;;;13.10;;
3967;SDS011;9221;42.646;23.380;2022-12-07T02:00:53;30.80;;;12.20;;
3967;SDS011;9221;42.646;23.380;2022-12-07T02:05:46;30.33;;;9.73;;
3967;SDS011;9221;42.646;23.380;2022-12-07T02:08:14;31.43;;;9.63;;
3967;SDS011;9221;42.646;23.380;2022-12-07T02:10:39;34.53;;;10.27;;
3967;SDS011;9221;42.646;23.380;2022-12-07T02:13:06;36.00;;;12.80;;
3967;SDS011;9221;42.646;23.380;2022-12-07T02:18:45;55.90;;;13.17;;
3967;SDS011;9221;42.646;23.380;2022-12-07T02:21:23;40.27;;;12.40;;
3967;SDS011;9221;42.646;23.380;2022-12-07T02:30:01;32.13;;;11.80;;
3967;SDS011;9221;42.646;23.380;2022-12-07T02:32:40;46.93;;;14.23;;
3967;SDS011;9221;42.646;23.380;2022-12-07T02:38:02;47.60;;;14.13;;
3967;SDS011;9221;42.646;23.380;2022-12-07T02:43:26;40.43;;;13.37;;
3967;SDS011;9221;42.646;23.380;2022-12-07T02:45:55;44.93;;;14.60;;
3967;SDS011;9221;42.646;23.380;2022-12-07T02:48:24;47.60;;;13.60;;
3967;SDS011;9221;42.646;23.380;2022-12-07T02:50:52;42.40;;;14.50;;
3967;SDS011;9221;42.646;23.380;2022-12-07T02:53:31;51.10;;;14.97;;
3967;SDS011;9221;42.646;23.380;2022-12-07T02:55:57;48.00;;;15.77;;
3967;SDS011;9221;42.646;23.380;2022-12-07T02:59:02;55.97;;;16.23;;
3967;SDS011;9221;42.646;23.380;2022-12-07T03:06:42;55.93;;;16.90;;
3967;SDS011;9221;42.646;23.380;2022-12-07T03:09:20;46.27;;;14.07;;
3967;SDS011;9221;42.646;23.380;2022-12-07T03:11:55;48.60;;;15.57;;
3967;SDS011;9221;42.646;23.380;2022-12-07T03:14:30;44.47;;;16.67;;
3967;SDS011;9221;42.646;23.380;2022-12-07T03:19:40;42.92;;;14.43;;
3967;SDS011;9221;42.646;23.380;2022-12-07T03:22:09;54.00;;;15.00;;
3967;SDS011;9221;42.646;23.380;2022-12-07T03:24:38;45.50;;;14.43;;
3967;SDS011;9221;42.646;23.380;2022-12-07T03:27:13;54.73;;;15.63;;
3967;SDS011;9221;42.646;23.380;2022-12-07T03:29:45;65.03;;;15.00;;
3967;SDS011;9221;42.646;23.380;2022-12-07T03:35:12;52.63;;;16.23;;
3967;SDS011;9221;42.646;23.380;2022-12-07T03:37:47;45.13;;;14.97;;
3967;SDS011;9221;42.646;23.380;2022-12-07T03:43:20;48.43;;;15.73;;
3967;SDS011;9221;42.646;23.380;2022-12-07T03:45:52;46.40;;;14.48;;
3967;SDS011;9221;42.646;23.380;2022-12-07T03:51:26;48.93;;;14.60;;
3967;SDS011;9221;42.646;23.380;2022-12-07T03:56:38;39.10;;;13.77;;
3967;SDS011;9221;42.646;23.380;2022-12-07T03:59:05;43.47;;;16.00;;
3967;SDS011;9221;42.646;23.380;2022-12-07T04:01:32;53.25;;;16.50;;
3967;SDS011;9221;42.646;23.380;2022-12-07T04:03:57;43.50;;;16.03;;
3967;SDS011;9221;42.646;23.380;2022-12-07T04:06:23;42.83;;;15.60;;
3967;SDS011;9221;42.646;23.380;2022-12-07T04:08:48;48.90;;;15.60;;
3967;SDS011;9221;42.646;23.380;2022-12-07T04:11:13;42.50;;;16.03;;
3967;SDS011;9221;42.646;23.380;2022-12-07T04:13:39;49.60;;;16.07;;
3967;SDS011;9221;42.646;23.380;2022-12-07T04:16:22;43.33;;;14.67;;
3967;SDS011;9221;42.646;23.380;2022-12-07T04:18:48;52.50;;;15.07;;
3967;SDS011;9221;42.646;23.380;2022-12-07T04:21:13;47.33;;;15.50;;
3967;SDS011;9221;42.646;23.380;2022-12-07T04:23:39;58.67;;;15.60;;
3967;SDS011;9221;42.646;23.380;2022-12-07T04:26:04;44.00;;;15.20;;
3967;SDS011;9221;42.646;23.380;2022-12-07T04:28:30;44.27;;;14.40;;
3967;SDS011;9221;42.646;23.380;2022-12-07T04:30:55;46.33;;;16.00;;
3967;SDS011;9221;42.646;23.380;2022-12-07T04:33:20;54.57;;;15.47;;
3967;SDS011;9221;42.646;23.380;2022-12-07T04:35:46;43.73;;;14.63;;
3967;SDS011;9221;42.646;23.380;2022-12-07T04:38:11;52.73;;;15.17;;
3967;SDS011;9221;42.646;23.380;2022-12-07T04:40:36;47.37;;;15.97;;
3967;SDS011;9221;42.646;23.380;2022-12-07T04:43:02;51.47;;;16.57;;
3967;SDS011;9221;42.646;23.380;2022-12-07T04:45:27;55.57;;;16.50;;
3967;SDS011;9221;42.646;23.380;2022-12-07T04:47:53;49.10;;;15.87;;
3967;SDS011;9221;42.646;23.380;2022-12-07T04:50:18;53.10;;;15.03;;
3967;SDS011;9221;42.646;23.380;2022-12-07T04:52:43;45.07;;;14.27;;
3967;SDS011;9221;42.646;23.380;2022-12-07T04:55:09;46.43;;;15.73;;
3967;SDS011;9221;42.646;23.380;2022-12-07T04:57:34;51.03;;;16.07;;
3967;SDS011;9221;42.646;23.380;2022-12-07T04:59:59;45.43;;;14.73;;
3967;SDS011;9221;42.646;23.380;2022-12-07T05:02:25;40.67;;;12.87;;
3967;SDS011;9221;42.646;23.380;2022-12-07T05:04:50;42.37;;;13.60;;
3967;SDS011;9221;42.646;23.380;2022-12-07T05:07:16;45.57;;;15.00;;
3967;SDS011;9221;42.646;23.380;2022-12-07T05:09:42;44.50;;;13.97;;
3967;SDS011;9221;42.646;23.380;2022-12-07T05:12:07;58.10;;;14.77;;
3967;SDS011;9221;42.646;23.380;2022-12-07T05:14:32;47.50;;;14.83;;
3967;SDS011;9221;42.646;23.380;2022-12-07T05:16:58;47.37;;;15.33;;
3967;SDS011;9221;42.646;23.380;2022-12-07T05:19:23;50.17;;;14.07;;
3967;SDS011;9221;42.646;23.380;2022-12-07T05:21:49;63.93;;;15.33;;
3967;SDS011;9221;42.646;23.380;2022-12-07T05:24:14;57.27;;;15.70;;
3967;SDS011;9221;42.646;23.380;2022-12-07T05:26:42;42.75;;;14.82;;
3967;SDS011;9221;42.646;23.380;2022-12-07T05:29:10;48.40;;;14.20;;
3967;SDS011;9221;42.646;23.380;2022-12-07T05:31:37;53.67;;;16.50;;
3967;SDS011;9221;42.646;23.380;2022-12-07T05:34:02;42.87;;;14.97;;
3967;SDS011;9221;42.646;23.380;2022-12-07T05:36:28;44.27;;;14.37;;
3967;SDS011;9221;42.646;23.380;2022-12-07T05:38:56;45.20;;;14.00;;
3967;SDS011;9221;42.646;23.380;2022-12-07T05:41:21;44.60;;;14.37;;
3967;SDS011;9221;42.646;23.380;2022-12-07T05:44:05;47.47;;;14.18;;
3967;SDS011;9221;42.646;23.380;2022-12-07T05:46:31;46.93;;;15.80;;
3967;SDS011;9221;42.646;23.380;2022-12-07T05:48:57;52.87;;;15.10;;
3967;SDS011;9221;42.646;23.380;2022-12-07T05:51:22;52.23;;;15.27;;
3967;SDS011;9221;42.646;23.380;2022-12-07T05:53:47;41.07;;;13.37;;
3967;SDS011;9221;42.646;23.380;2022-12-07T05:56:13;53.37;;;15.03;;
3967;SDS011;9221;42.646;23.380;2022-12-07T05:58:39;57.67;;;14.93;;
3967;SDS011;9221;42.646;23.380;2022-12-07T06:01:23;56.40;;;15.03;;
3967;SDS011;9221;42.646;23.380;2022-12-07T06:03:49;57.40;;;14.83;;
3967;SDS011;9221;42.646;23.380;2022-12-07T06:06:15;52.63;;;15.20;;
3967;SDS011;9221;42.646;23.380;2022-12-07T06:08:40;67.43;;;15.90;;
3967;SDS011;9221;42.646;23.380;2022-12-07T06:11:05;48.90;;;15.27;;
3967;SDS011;9221;42.646;23.380;2022-12-07T06:13:49;52.93;;;14.70;;
3967;SDS011;9221;42.646;23.380;2022-12-07T06:16:14;40.07;;;13.90;;
3967;SDS011;9221;42.646;23.380;2022-12-07T06:18:40;53.87;;;13.47;;
3967;SDS011;9221;42.646;23.380;2022-12-07T06:21:05;50.93;;;16.00;;
3967;SDS011;9221;42.646;23.380;2022-12-07T06:23:31;47.40;;;14.77;;
3967;SDS011;9221;42.646;23.380;2022-12-07T06:25:56;45.60;;;14.33;;
3967;SDS011;9221;42.646;23.380;2022-12-07T06:28:21;42.93;;;13.50;;
3967;SDS011;9221;42.646;23.380;2022-12-07T06:30:47;54.03;;;14.77;;
3967;SDS011;9221;42.646;23.380;2022-12-07T06:33:12;46.33;;;13.80;;
3967;SDS011;9221;42.646;23.380;2022-12-07T06:35:38;42.07;;;12.90;;
3967;SDS011;9221;42.646;23.380;2022-12-07T06:38:03;70.87;;;14.10;;
3967;SDS011;9221;42.646;23.380;2022-12-07T06:40:28;47.73;;;14.93;;
3967;SDS011;9221;42.646;23.380;2022-12-07T06:42:54;64.33;;;15.10;;
3967;SDS011;9221;42.646;23.380;2022-12-07T06:45:19;72.87;;;14.40;;
3967;SDS011;9221;42.646;23.380;2022-12-07T06:47:44;57.97;;;15.17;;
3967;SDS011;9221;42.646;23.380;2022-12-07T06:50:10;50.00;;;13.43;;
3967;SDS011;9221;42.646;23.380;2022-12-07T06:52:35;51.47;;;14.57;;
3967;SDS011;9221;42.646;23.380;2022-12-07T06:55:01;45.90;;;14.80;;
3967;SDS011;9221;42.646;23.380;2022-12-07T06:57:26;53.73;;;14.63;;
3967;SDS011;9221;42.646;23.380;2022-12-07T06:59:51;50.30;;;14.53;;
3967;SDS011;9221;42.646;23.380;2022-12-07T07:02:17;49.03;;;15.37;;
3967;SDS011;9221;42.646;23.380;2022-12-07T07:04:43;56.10;;;15.07;;
3967;SDS011;9221;42.646;23.380;2022-12-07T07:07:08;49.30;;;15.10;;
3967;SDS011;9221;42.646;23.380;2022-12-07T07:09:34;49.20;;;14.60;;
3967;SDS011;9221;42.646;23.380;2022-12-07T07:11:59;50.87;;;15.17;;
3967;SDS011;9221;42.646;23.380;2022-12-07T07:14:24;64.70;;;15.13;;
3967;SDS011;9221;42.646;23.380;2022-12-07T07:16:50;46.57;;;14.33;;
3967;SDS011;9221;42.646;23.380;2022-12-07T07:19:15;48.20;;;14.07;;
3967;SDS011;9221;42.646;23.380;2022-12-07T07:21:41;46.90;;;14.83;;
3967;SDS011;9221;42.646;23.380;2022-12-07T07:24:06;45.67;;;13.53;;
3967;SDS011;9221;42.646;23.380;2022-12-07T07:26:32;37.43;;;13.53;;
3967;SDS011;9221;42.646;23.380;2022-12-07T07:28:57;44.03;;;15.30;;
3967;SDS011;9221;42.646;23.380;2022-12-07T07:31:23;48.20;;;15.73;;
3967;SDS011;9221;42.646;23.380;2022-12-07T07:33:48;43.07;;;14.10;;
3967;SDS011;9221;42.646;23.380;2022-12-07T07:36:14;43.53;;;15.17;;
3967;SDS011;9221;42.646;23.380;2022-12-07T07:38:39;63.67;;;16.47;;
3967;SDS011;9221;42.646;23.380;2022-12-07T07:41:04;42.80;;;14.40;;
3967;SDS011;9221;42.646;23.380;2022-12-07T07:43:30;42.97;;;14.30;;
3967;SDS011;9221;42.646;23.380;2022-12-07T07:45:55;46.57;;;14.60;;
3967;SDS011;9221;42.646;23.380;2022-12-07T07:48:20;47.77;;;14.80;;
3967;SDS011;9221;42.646;23.380;2022-12-07T07:50:47;40.37;;;13.80;;
3967;SDS011;9221;42.646;23.380;2022-12-07T07:53:13;58.53;;;15.30;;
3967;SDS011;9221;42.646;23.380;2022-12-07T07:55:38;51.63;;;14.60;;
3967;SDS011;9221;42.646;23.380;2022-12-07T07:58:03;39.30;;;13.57;;
3967;SDS011;9221;42.646;23.380;2022-12-07T08:00:29;51.33;;;15.60;;
3967;SDS011;9221;42.646;23.380;2022-12-07T08:02:54;54.07;;;15.07;;
3967;SDS011;9221;42.646;23.380;2022-12-07T08:05:20;54.53;;;14.60;;
3967;SDS011;9221;42.646;23.380;2022-12-07T08:07:45;47.00;;;14.43;;
3967;SDS011;9221;42.646;23.380;2022-12-07T08:10:11;55.50;;;15.67;;
3967;SDS011;9221;42.646;23.380;2022-12-07T08:12:38;41.90;;;12.43;;
3967;SDS011;9221;42.646;23.380;2022-12-07T08:15:26;47.83;;;12.90;;
3967;SDS011;9221;42.646;23.380;2022-12-07T08:17:52;45.00;;;14.53;;
3967;SDS011;9221;42.646;23.380;2022-12-07T08:20:17;43.67;;;13.93;;
3967;SDS011;9221;42.646;23.380;2022-12-07T08:22:43;48.07;;;13.67;;
3967;SDS011;9221;42.646;23.380;2022-12-07T08:25:08;55.33;;;14.60;;
3967;SDS011;9221;42.646;23.380;2022-12-07T08:27:33;58.53;;;15.07;;
3967;SDS011;9221;42.646;23.380;2022-12-07T08:29:59;39.10;;;13.47;;
3967;SDS011;9221;42.646;23.380;2022-12-07T08:32:24;51.67;;;14.80;;
3967;SDS011;9221;42.646;23.380;2022-12-07T08:34:49;47.73;;;15.57;;
3967;SDS011;9221;42.646;23.380;2022-12-07T08:37:17;38.63;;;13.03;;
3967;SDS011;9221;42.646;23.380;2022-12-07T08:39:42;34.27;;;11.83;;
3967;SDS011;9221;42.646;23.380;2022-12-07T08:42:07;39.13;;;13.90;;
3967;SDS011;9221;42.646;23.380;2022-12-07T08:44:33;50.70;;;14.73;;
3967;SDS011;9221;42.646;23.380;2022-12-07T08:46:59;45.67;;;14.50;;
3967;SDS011;9221;42.646;23.380;2022-12-07T08:49:28;51.73;;;14.80;;
3967;SDS011;9221;42.646;23.380;2022-12-07T08:51:59;39.67;;;11.97;;
3967;SDS011;9221;42.646;23.380;2022-12-07T08:54:24;45.70;;;14.07;;
3967;SDS011;9221;42.646;23.380;2022-12-07T08:56:50;43.77;;;14.20;;
3967;SDS011;9221;42.646;23.380;2022-12-07T08:59:17;53.50;;;13.77;;
3967;SDS011;9221;42.646;23.380;2022-12-07T09:01:44;49.17;;;14.60;;
3967;SDS011;9221;42.646;23.380;2022-12-07T09:04:09;45.00;;;13.50;;
3967;SDS011;9221;42.646;23.380;2022-12-07T09:06:36;36.73;;;12.77;;
3967;SDS011;9221;42.646;23.380;2022-12-07T09:09:01;39.23;;;13.37;;
3967;SDS011;9221;42.646;23.380;2022-12-07T09:11:28;51.40;;;13.35;;
3967;SDS011;9221;42.646;23.380;2022-12-07T09:13:53;39.17;;;13.33;;
3967;SDS011;9221;42.646;23.380;2022-12-07T09:16:19;38.53;;;13.43;;
3967;SDS011;9221;42.646;23.380;2022-12-07T09:18:44;51.10;;;13.80;;
3967;SDS011;9221;42.646;23.380;2022-12-07T09:21:09;48.13;;;13.70;;
3967;SDS011;9221;42.646;23.380;2022-12-07T09:23:35;40.33;;;12.97;;
3967;SDS011;9221;42.646;23.380;2022-12-07T09:26:00;60.53;;;13.10;;
3967;SDS011;9221;42.646;23.380;2022-12-07T09:28:27;45.90;;;12.80;;
3967;SDS011;9221;42.646;23.380;2022-12-07T09:30:53;32.83;;;12.43;;
3967;SDS011;9221;42.646;23.380;2022-12-07T09:33:18;50.40;;;15.40;;
3967;SDS011;9221;42.646;23.380;2022-12-07T09:35:47;54.97;;;15.43;;
3967;SDS011;9221;42.646;23.380;2022-12-07T09:38:14;43.20;;;13.32;;
3967;SDS011;9221;42.646;23.380;2022-12-07T09:40:40;39.83;;;13.53;;
3967;SDS011;9221;42.646;23.380;2022-12-07T09:43:18;39.17;;;12.80;;
3967;SDS011;9221;42.646;23.380;2022-12-07T09:45:45;31.00;;;12.47;;
3967;SDS011;9221;42.646;23.380;2022-12-07T09:48:18;38.70;;;12.70;;
3967;SDS011;9221;42.646;23.380;2022-12-07T09:50:46;38.53;;;12.63;;
3967;SDS011;9221;42.646;23.380;2022-12-07T09:53:34;40.07;;;12.70;;
3967;SDS011;9221;42.646;23.380;2022-12-07T09:55:59;42.53;;;13.60;;
3967;SDS011;9221;42.646;23.380;2022-12-07T09:58:27;39.00;;;12.33;;
3967;SDS011;9221;42.646;23.380;2022-12-07T10:01:05;32.60;;;11.98;;
3967;SDS011;9221;42.646;23.380;2022-12-07T10:03:36;39.43;;;12.10;;
3967;SDS011;9221;42.646;23.380;2022-12-07T10:06:04;35.50;;;12.80;;
3967;SDS011;9221;42.646;23.380;2022-12-07T10:08:31;35.92;;;12.13;;
3967;SDS011;9221;42.646;23.380;2022-12-07T10:10:57;34.57;;;12.03;;
3967;SDS011;9221;42.646;23.380;2022-12-07T10:13:38;33.23;;;12.20;;
3967;SDS011;9221;42.646;23.380;2022-12-07T10:16:25;44.27;;;13.53;;
3967;SDS011;9221;42.646;23.380;2022-12-07T10:19:25;41.50;;;13.47;;
3967;SDS011;9221;42.646;23.380;2022-12-07T10:24:40;47.23;;;13.80;;
3967;SDS011;9221;42.646;23.380;2022-12-07T10:27:30;38.10;;;11.43;;
3967;SDS011;9221;42.646;23.380;2022-12-07T10:29:57;42.80;;;12.50;;
3967;SDS011;9221;42.646;23.380;2022-12-07T10:37:54;41.60;;;13.87;;
3967;SDS011;9221;42.646;23.380;2022-12-07T10:40:32;48.80;;;14.40;;
3967;SDS011;9221;42.646;23.380;2022-12-07T10:43:14;42.30;;;14.00;;
3967;SDS011;9221;42.646;23.380;2022-12-07T10:54:21;35.00;;;12.30;;
3967;SDS011;9221;42.646;23.380;2022-12-07T10:57:05;47.33;;;13.57;;
3967;SDS011;9221;42.646;23.380;2022-12-07T11:05:27;37.03;;;11.53;;
3967;SDS011;9221;42.646;23.380;2022-12-07T11:08:05;42.13;;;11.80;;
3967;SDS011;9221;42.646;23.380;2022-12-07T11:27:03;54.90;;;12.90;;
3967;SDS011;9221;42.646;23.380;2022-12-07T11:30:00;34.30;;;11.90;;
3967;SDS011;9221;42.646;23.380;2022-12-07T11:32:41;32.57;;;12.20;;
3967;SDS011;9221;42.646;23.380;2022-12-07T11:38:09;42.97;;;12.60;;
3967;SDS011;9221;42.646;23.380;2022-12-07T11:40:39;38.17;;;11.63;;
3967;SDS011;9221;42.646;23.380;2022-12-07T11:46:11;41.33;;;13.20;;
3967;SDS011;9221;42.646;23.380;2022-12-07T11:48:41;29.73;;;11.43;;
3967;SDS011;9221;42.646;23.380;2022-12-07T11:51:11;41.43;;;11.73;;
3967;SDS011;9221;42.646;23.380;2022-12-07T11:56:25;27.38;;;11.23;;
3967;SDS011;9221;42.646;23.380;2022-12-07T12:02:13;43.43;;;12.27;;
3967;SDS011;9221;42.646;23.380;2022-12-07T12:04:47;81.53;;;14.53;;
3967;SDS011;9221;42.646;23.380;2022-12-07T12:07:23;43.63;;;13.70;;
3967;SDS011;9221;42.646;23.380;2022-12-07T12:09:52;48.07;;;14.13;;
3967;SDS011;9221;42.646;23.380;2022-12-07T12:20:45;39.17;;;12.43;;
3967;SDS011;9221;42.646;23.380;2022-12-07T12:25:58;36.93;;;12.20;;
3967;SDS011;9221;42.646;23.380;2022-12-07T12:33:48;45.13;;;13.20;;
3967;SDS011;9221;42.646;23.380;2022-12-07T12:51:56;53.03;;;12.77;;
3967;SDS011;9221;42.646;23.380;2022-12-07T12:54:27;46.57;;;11.93;;
3967;SDS011;9221;42.646;23.380;2022-12-07T12:59:33;29.07;;;9.60;;
3967;SDS011;9221;42.646;23.380;2022-12-07T13:02:24;26.90;;;8.80;;
3967;SDS011;9221;42.646;23.380;2022-12-07T13:04:54;25.47;;;9.33;;
3967;SDS011;9221;42.646;23.380;2022-12-07T13:10:21;39.37;;;12.47;;
3967;SDS011;9221;42.646;23.380;2022-12-07T13:15:41;39.50;;;12.30;;
3967;SDS011;9221;42.646;23.380;2022-12-07T13:31:35;37.67;;;9.77;;
3967;SDS011;9221;42.646;23.380;2022-12-07T13:34:39;25.00;;;9.53;;
3967;SDS011;9221;42.646;23.380;2022-12-07T13:36:58;20.80;;;7.93;;
3967;SDS011;9221;42.646;23.380;2022-12-07T13:39:45;29.35;;;9.27;;
3967;SDS011;9221;42.646;23.380;2022-12-07T13:44:54;26.92;;;8.95;;
3967;SDS011;9221;42.646;23.380;2022-12-07T13:50:20;28.55;;;8.80;;
3967;SDS011;9221;42.646;23.380;2022-12-07T13:52:59;35.17;;;9.07;;
3967;SDS011;9221;42.646;23.380;2022-12-07T13:55:26;27.20;;;8.97;;
3967;SDS011;9221;42.646;23.380;2022-12-07T13:57:53;28.13;;;9.23;;
3967;SDS011;9221;42.646;23.380;2022-12-07T14:02:57;29.30;;;9.60;;
3967;SDS011;9221;42.646;23.380;2022-12-07T14:05:27;24.43;;;8.40;;
3967;SDS011;9221;42.646;23.380;2022-12-07T14:07:56;25.90;;;8.57;;
3967;SDS011;9221;42.646;23.380;2022-12-07T14:10:23;35.37;;;10.57;;
3967;SDS011;9221;42.646;23.380;2022-12-07T14:12:51;28.03;;;9.50;;
3967;SDS011;9221;42.646;23.380;2022-12-07T14:15:21;27.23;;;9.65;;
3967;SDS011;9221;42.646;23.380;2022-12-07T14:17:49;50.43;;;10.57;;
3967;SDS011;9221;42.646;23.380;2022-12-07T14:20:34;33.47;;;9.52;;
3967;SDS011;9221;42.646;23.380;2022-12-07T14:23:00;31.30;;;9.13;;
3967;SDS011;9221;42.646;23.380;2022-12-07T14:25:33;50.70;;;10.00;;
3967;SDS011;9221;42.646;23.380;2022-12-07T14:28:23;35.63;;;9.13;;
3967;SDS011;9221;42.646;23.380;2022-12-07T14:30:54;22.47;;;9.23;;
3967;SDS011;9221;42.646;23.380;2022-12-07T14:33:19;27.27;;;10.03;;
3967;SDS011;9221;42.646;23.380;2022-12-07T14:35:46;40.60;;;9.60;;
3967;SDS011;9221;42.646;23.380;2022-12-07T14:38:12;44.80;;;11.20;;
3967;SDS011;9221;42.646;23.380;2022-12-07T14:40:38;32.63;;;9.80;;
3967;SDS011;9221;42.646;23.380;2022-12-07T14:45:31;35.40;;;10.00;;
3967;SDS011;9221;42.646;23.380;2022-12-07T14:47:57;36.37;;;9.90;;
3967;SDS011;9221;42.646;23.380;2022-12-07T14:50:22;38.80;;;10.90;;
3967;SDS011;9221;42.646;23.380;2022-12-07T14:52:49;33.83;;;10.20;;
3967;SDS011;9221;42.646;23.380;2022-12-07T14:55:27;36.33;;;9.17;;
3967;SDS011;9221;42.646;23.380;2022-12-07T14:57:55;53.03;;;11.20;;
3967;SDS011;9221;42.646;23.380;2022-12-07T15:00:22;37.93;;;10.97;;
3967;SDS011;9221;42.646;23.380;2022-12-07T15:02:49;42.13;;;10.50;;
3967;SDS011;9221;42.646;23.380;2022-12-07T15:05:16;33.80;;;10.13;;
3967;SDS011;9221;42.646;23.380;2022-12-07T15:10:26;33.93;;;10.47;;
3967;SDS011;9221;42.646;23.380;2022-12-07T15:12:55;36.97;;;9.73;;
3967;SDS011;9221;42.646;23.380;2022-12-07T15:15:41;47.53;;;14.03;;
3967;SDS011;9221;42.646;23.380;2022-12-07T15:18:06;40.07;;;11.47;;
3967;SDS011;9221;42.646;23.380;2022-12-07T15:20:32;44.53;;;12.03;;
3967;SDS011;9221;42.646;23.380;2022-12-07T15:22:57;37.07;;;9.90;;
3967;SDS011;9221;42.646;23.380;2022-12-07T15:25:23;43.80;;;12.03;;
3967;SDS011;9221;42.646;23.380;2022-12-07T15:27:48;37.47;;;11.30;;
3967;SDS011;9221;42.646;23.380;2022-12-07T15:30:14;31.83;;;11.03;;
3967;SDS011;9221;42.646;23.380;2022-12-07T15:32:39;49.80;;;12.13;;
3967;SDS011;9221;42.646;23.380;2022-12-07T15:35:05;66.53;;;13.93;;
3967;SDS011;9221;42.646;23.380;2022-12-07T15:37:30;48.73;;;13.23;;
3967;SDS011;9221;42.646;23.380;2022-12-07T15:39:56;42.87;;;12.77;;
3967;SDS011;9221;42.646;23.380;2022-12-07T15:42:21;52.63;;;13.43;;
3967;SDS011;9221;42.646;23.380;2022-12-07T15:44:46;57.63;;;13.93;;
3967;SDS011;9221;42.646;23.380;2022-12-07T15:47:31;51.93;;;15.13;;
3967;SDS011;9221;42.646;23.380;2022-12-07T15:50:02;56.80;;;14.30;;
3967;SDS011;9221;42.646;23.380;2022-12-07T15:52:29;61.47;;;14.47;;
3967;SDS011;9221;42.646;23.380;2022-12-07T15:54:55;75.47;;;14.67;;
3967;SDS011;9221;42.646;23.380;2022-12-07T15:57:20;46.73;;;14.80;;
3967;SDS011;9221;42.646;23.380;2022-12-07T15:59:45;45.83;;;12.20;;
3967;SDS011;9221;42.646;23.380;2022-12-07T16:02:11;47.10;;;12.80;;
3967;SDS011;9221;42.646;23.380;2022-12-07T16:04:36;51.60;;;13.77;;
3967;SDS011;9221;42.646;23.380;2022-12-07T16:07:02;48.77;;;14.03;;
3967;SDS011;9221;42.646;23.380;2022-12-07T16:09:27;54.53;;;13.63;;
3967;SDS011;9221;42.646;23.380;2022-12-07T16:11:53;42.10;;;12.50;;
3967;SDS011;9221;42.646;23.380;2022-12-07T16:14:19;68.00;;;15.57;;
3967;SDS011;9221;42.646;23.380;2022-12-07T16:16:45;55.73;;;15.30;;
3967;SDS011;9221;42.646;23.380;2022-12-07T16:19:10;62.67;;;15.57;;
3967;SDS011;9221;42.646;23.380;2022-12-07T16:21:36;55.87;;;13.00;;
3967;SDS011;9221;42.646;23.380;2022-12-07T16:24:02;86.43;;;18.33;;
3967;SDS011;9221;42.646;23.380;2022-12-07T16:26:28;52.30;;;16.83;;
3967;SDS011;9221;42.646;23.380;2022-12-07T16:28:54;68.50;;;15.90;;
3967;SDS011;9221;42.646;23.380;2022-12-07T16:31:24;49.17;;;14.67;;
3967;SDS011;9221;42.646;23.380;2022-12-07T16:33:55;62.63;;;16.23;;
3967;SDS011;9221;42.646;23.380;2022-12-07T16:36:23;47.33;;;13.70;;
3967;SDS011;9221;42.646;23.380;2022-12-07T16:38:50;49.00;;;13.80;;
3967;SDS011;9221;42.646;23.380;2022-12-07T16:41:16;52.17;;;16.27;;
3967;SDS011;9221;42.646;23.380;2022-12-07T16:43:41;55.73;;;15.73;;
3967;SDS011;9221;42.646;23.380;2022-12-07T16:46:07;62.50;;;16.30;;
3967;SDS011;9221;42.646;23.380;2022-12-07T16:48:37;58.27;;;15.40;;
3967;SDS011;9221;42.646;23.380;2022-12-07T16:51:04;53.73;;;15.13;;
3967;SDS011;9221;42.646;23.380;2022-12-07T16:53:31;61.53;;;15.60;;
3967;SDS011;9221;42.646;23.380;2022-12-07T16:55:56;59.77;;;17.77;;
3967;SDS011;9221;42.646;23.380;2022-12-07T16:58:21;52.40;;;15.13;;
3967;SDS011;9221;42.646;23.380;2022-12-07T17:00:47;68.93;;;16.20;;
3967;SDS011;9221;42.646;23.380;2022-12-07T17:03:13;50.53;;;14.77;;
3967;SDS011;9221;42.646;23.380;2022-12-07T17:05:39;51.57;;;16.13;;
3967;SDS011;9221;42.646;23.380;2022-12-07T17:08:07;58.17;;;14.63;;
3967;SDS011;9221;42.646;23.380;2022-12-07T17:10:37;53.63;;;14.00;;
3967;SDS011;9221;42.646;23.380;2022-12-07T17:13:05;41.60;;;13.83;;
3967;SDS011;9221;42.646;23.380;2022-12-07T17:16:04;55.10;;;13.83;;
3967;SDS011;9221;42.646;23.380;2022-12-07T17:18:35;59.13;;;14.13;;